sensor_id;sensor_type;location;lat;lon;timestamp;P1;durP1;ratioP1;P2;durP2;ratioP2
57067;SDS011;43391;47.448;18.904;2023-06-14T00:02:03;7.45;;;5.68;;
57067;SDS011;43391;47.448;18.904;2023-06-14T00:04:29;7.38;;;4.85;;
57067;SDS011;43391;47.448;18.904;2023-06-14T00:06:55;9.10;;;5.88;;
57067;SDS011;43391;47.448;18.904;2023-06-14T00:09:21;9.07;;;5.25;;
57067;SDS011;43391;47.448;18.904;2023-06-14T00:11:48;9.38;;;5.22;;
57067;SDS011;43391;47.448;18.904;2023-06-14T00:14:13;11.45;;;5.25;;
57067;SDS011;43391;47.448;18.904;2023-06-14T00:16:39;9.20;;;6.10;;
57067;SDS011;43391;47.448;18.904;2023-06-14T00:19:07;8.73;;;5.30;;
57067;SDS011;43391;47.448;18.904;2023-06-14T00:21:35;7.55;;;5.53;;
57067;SDS011;43391;47.448;18.904;2023-06-14T00:24:01;6.88;;;5.18;;
57067;SDS011;43391;47.448;18.904;2023-06-14T00:26:27;7.88;;;4.75;;
57067;SDS011;43391;47.448;18.904;2023-06-14T00:28:53;9.88;;;5.38;;
57067;SDS011;43391;47.448;18.904;2023-06-14T00:31:19;10.02;;;5.00;;
57067;SDS011;43391;47.448;18.904;2023-06-14T00:33:45;8.13;;;5.07;;
57067;SDS011;43391;47.448;18.904;2023-06-14T00:36:10;8.52;;;4.95;;
57067;SDS011;43391;47.448;18.904;2023-06-14T00:38:36;9.38;;;5.63;;
57067;SDS011;43391;47.448;18.904;2023-06-14T00:41:01;9.90;;;6.07;;
57067;SDS011;43391;47.448;18.904;2023-06-14T00:43:26;9.27;;;5.50;;
57067;SDS011;43391;47.448;18.904;2023-06-14T00:45:52;8.88;;;5.50;;
57067;SDS011;43391;47.448;18.904;2023-06-14T00:48:17;8.55;;;5.75;;
57067;SDS011;43391;47.448;18.904;2023-06-14T00:50:44;11.57;;;5.75;;
57067;SDS011;43391;47.448;18.904;2023-06-14T00:53:15;7.65;;;5.25;;
57067;SDS011;43391;47.448;18.904;2023-06-14T00:55:42;8.70;;;5.43;;
57067;SDS011;43391;47.448;18.904;2023-06-14T00:58:08;9.35;;;5.32;;
57067;SDS011;43391;47.448;18.904;2023-06-14T01:00:34;10.77;;;5.72;;
57067;SDS011;43391;47.448;18.904;2023-06-14T01:03:00;7.57;;;5.80;;
57067;SDS011;43391;47.448;18.904;2023-06-14T01:05:26;7.35;;;5.22;;
57067;SDS011;43391;47.448;18.904;2023-06-14T01:07:58;11.00;;;6.07;;
57067;SDS011;43391;47.448;18.904;2023-06-14T01:10:37;12.43;;;5.90;;
57067;SDS011;43391;47.448;18.904;2023-06-14T01:15:52;8.35;;;5.20;;
57067;SDS011;43391;47.448;18.904;2023-06-14T01:18:19;8.93;;;5.95;;
57067;SDS011;43391;47.448;18.904;2023-06-14T01:20:45;8.77;;;5.65;;
57067;SDS011;43391;47.448;18.904;2023-06-14T01:23:15;7.57;;;5.57;;
57067;SDS011;43391;47.448;18.904;2023-06-14T01:25:44;10.65;;;6.15;;
57067;SDS011;43391;47.448;18.904;2023-06-14T01:28:11;8.82;;;5.95;;
57067;SDS011;43391;47.448;18.904;2023-06-14T01:30:41;8.38;;;5.68;;
57067;SDS011;43391;47.448;18.904;2023-06-14T01:33:17;10.48;;;6.50;;
57067;SDS011;43391;47.448;18.904;2023-06-14T01:35:46;9.70;;;6.03;;
57067;SDS011;43391;47.448;18.904;2023-06-14T01:38:14;8.45;;;5.63;;
57067;SDS011;43391;47.448;18.904;2023-06-14T01:40:43;7.93;;;6.03;;
57067;SDS011;43391;47.448;18.904;2023-06-14T01:43:10;10.50;;;6.18;;
57067;SDS011;43391;47.448;18.904;2023-06-14T01:45:38;9.70;;;6.40;;
57067;SDS011;43391;47.448;18.904;2023-06-14T01:48:05;11.85;;;5.55;;
57067;SDS011;43391;47.448;18.904;2023-06-14T01:50:30;8.20;;;6.35;;
57067;SDS011;43391;47.448;18.904;2023-06-14T01:52:56;14.52;;;6.20;;
57067;SDS011;43391;47.448;18.904;2023-06-14T01:55:21;9.98;;;6.45;;
57067;SDS011;43391;47.448;18.904;2023-06-14T01:57:47;10.18;;;6.45;;
57067;SDS011;43391;47.448;18.904;2023-06-14T02:00:13;13.20;;;7.22;;
57067;SDS011;43391;47.448;18.904;2023-06-14T02:02:39;8.98;;;6.15;;
57067;SDS011;43391;47.448;18.904;2023-06-14T02:05:05;7.82;;;5.93;;
57067;SDS011;43391;47.448;18.904;2023-06-14T02:07:31;9.70;;;6.47;;
57067;SDS011;43391;47.448;18.904;2023-06-14T02:09:56;9.70;;;6.40;;
57067;SDS011;43391;47.448;18.904;2023-06-14T02:12:21;9.07;;;6.55;;
57067;SDS011;43391;47.448;18.904;2023-06-14T02:14:47;7.43;;;5.53;;
57067;SDS011;43391;47.448;18.904;2023-06-14T02:17:13;8.30;;;5.95;;
57067;SDS011;43391;47.448;18.904;2023-06-14T02:19:39;9.40;;;6.13;;
57067;SDS011;43391;47.448;18.904;2023-06-14T02:22:05;15.20;;;7.40;;
57067;SDS011;43391;47.448;18.904;2023-06-14T02:24:31;9.45;;;6.60;;
57067;SDS011;43391;47.448;18.904;2023-06-14T02:26:56;10.10;;;6.40;;
57067;SDS011;43391;47.448;18.904;2023-06-14T02:29:21;11.82;;;6.43;;
57067;SDS011;43391;47.448;18.904;2023-06-14T02:31:47;10.73;;;6.60;;
57067;SDS011;43391;47.448;18.904;2023-06-14T02:34:13;9.90;;;6.57;;
57067;SDS011;43391;47.448;18.904;2023-06-14T02:36:41;9.45;;;6.85;;
57067;SDS011;43391;47.448;18.904;2023-06-14T02:39:07;9.20;;;6.63;;
57067;SDS011;43391;47.448;18.904;2023-06-14T02:41:34;11.02;;;7.13;;
57067;SDS011;43391;47.448;18.904;2023-06-14T02:44:00;11.27;;;6.80;;
57067;SDS011;43391;47.448;18.904;2023-06-14T02:46:25;9.82;;;6.70;;
57067;SDS011;43391;47.448;18.904;2023-06-14T02:48:50;9.40;;;6.95;;
57067;SDS011;43391;47.448;18.904;2023-06-14T02:51:16;15.15;;;6.90;;
57067;SDS011;43391;47.448;18.904;2023-06-14T02:53:41;9.32;;;7.22;;
57067;SDS011;43391;47.448;18.904;2023-06-14T02:56:06;9.75;;;7.45;;
57067;SDS011;43391;47.448;18.904;2023-06-14T02:58:32;11.45;;;6.82;;
57067;SDS011;43391;47.448;18.904;2023-06-14T03:00:58;12.50;;;7.85;;
57067;SDS011;43391;47.448;18.904;2023-06-14T03:03:28;14.20;;;9.05;;
57067;SDS011;43391;47.448;18.904;2023-06-14T03:05:54;12.70;;;8.23;;
57067;SDS011;43391;47.448;18.904;2023-06-14T03:08:20;15.90;;;9.82;;
57067;SDS011;43391;47.448;18.904;2023-06-14T03:10:46;15.85;;;9.98;;
57067;SDS011;43391;47.448;18.904;2023-06-14T03:13:15;18.60;;;11.38;;
57067;SDS011;43391;47.448;18.904;2023-06-14T03:18:09;18.25;;;12.18;;
57067;SDS011;43391;47.448;18.904;2023-06-14T03:20:35;20.33;;;13.73;;
57067;SDS011;43391;47.448;18.904;2023-06-14T03:23:01;20.27;;;12.85;;
57067;SDS011;43391;47.448;18.904;2023-06-14T03:25:28;20.38;;;12.98;;
57067;SDS011;43391;47.448;18.904;2023-06-14T03:30:22;20.65;;;13.18;;
57067;SDS011;43391;47.448;18.904;2023-06-14T03:32:47;21.00;;;12.98;;
57067;SDS011;43391;47.448;18.904;2023-06-14T03:35:12;17.58;;;12.85;;
57067;SDS011;43391;47.448;18.904;2023-06-14T03:37:42;19.00;;;12.90;;
57067;SDS011;43391;47.448;18.904;2023-06-14T03:42:37;24.52;;;14.13;;
57067;SDS011;43391;47.448;18.904;2023-06-14T03:45:02;21.35;;;13.80;;
57067;SDS011;43391;47.448;18.904;2023-06-14T03:47:28;21.85;;;15.02;;
57067;SDS011;43391;47.448;18.904;2023-06-14T03:49:54;21.30;;;14.13;;
57067;SDS011;43391;47.448;18.904;2023-06-14T03:52:20;24.35;;;14.63;;
57067;SDS011;43391;47.448;18.904;2023-06-14T03:54:47;29.20;;;14.77;;
57067;SDS011;43391;47.448;18.904;2023-06-14T03:57:12;26.58;;;15.27;;
57067;SDS011;43391;47.448;18.904;2023-06-14T03:59:38;22.42;;;14.57;;
57067;SDS011;43391;47.448;18.904;2023-06-14T04:02:03;23.98;;;15.15;;
57067;SDS011;43391;47.448;18.904;2023-06-14T04:04:29;26.13;;;14.98;;
57067;SDS011;43391;47.448;18.904;2023-06-14T04:06:55;26.13;;;14.88;;
57067;SDS011;43391;47.448;18.904;2023-06-14T04:09:22;22.50;;;14.65;;
57067;SDS011;43391;47.448;18.904;2023-06-14T04:11:49;24.63;;;16.13;;
57067;SDS011;43391;47.448;18.904;2023-06-14T04:14:15;23.90;;;15.82;;
57067;SDS011;43391;47.448;18.904;2023-06-14T04:16:40;24.30;;;15.48;;
57067;SDS011;43391;47.448;18.904;2023-06-14T04:19:06;21.20;;;14.77;;
57067;SDS011;43391;47.448;18.904;2023-06-14T04:21:31;22.98;;;14.77;;
57067;SDS011;43391;47.448;18.904;2023-06-14T04:23:59;25.27;;;15.23;;
57067;SDS011;43391;47.448;18.904;2023-06-14T04:26:27;25.63;;;14.82;;
57067;SDS011;43391;47.448;18.904;2023-06-14T04:28:58;18.35;;;13.80;;
57067;SDS011;43391;47.448;18.904;2023-06-14T04:31:30;25.17;;;14.88;;
57067;SDS011;43391;47.448;18.904;2023-06-14T04:33:58;23.35;;;14.27;;
57067;SDS011;43391;47.448;18.904;2023-06-14T04:36:24;21.33;;;13.70;;
57067;SDS011;43391;47.448;18.904;2023-06-14T04:38:51;24.70;;;15.63;;
57067;SDS011;43391;47.448;18.904;2023-06-14T04:41:20;19.83;;;13.35;;
57067;SDS011;43391;47.448;18.904;2023-06-14T04:43:47;22.00;;;13.77;;
57067;SDS011;43391;47.448;18.904;2023-06-14T04:46:14;22.58;;;14.15;;
57067;SDS011;43391;47.448;18.904;2023-06-14T04:48:40;23.38;;;14.23;;
57067;SDS011;43391;47.448;18.904;2023-06-14T04:51:07;21.88;;;13.55;;
57067;SDS011;43391;47.448;18.904;2023-06-14T04:53:33;21.60;;;12.57;;
57067;SDS011;43391;47.448;18.904;2023-06-14T04:55:59;19.92;;;13.70;;
57067;SDS011;43391;47.448;18.904;2023-06-14T04:58:26;22.15;;;13.90;;
57067;SDS011;43391;47.448;18.904;2023-06-14T05:00:52;19.45;;;12.95;;
57067;SDS011;43391;47.448;18.904;2023-06-14T05:03:18;19.27;;;13.50;;
57067;SDS011;43391;47.448;18.904;2023-06-14T05:05:46;24.20;;;14.10;;
57067;SDS011;43391;47.448;18.904;2023-06-14T05:08:11;18.73;;;13.77;;
57067;SDS011;43391;47.448;18.904;2023-06-14T05:10:37;21.08;;;14.00;;
57067;SDS011;43391;47.448;18.904;2023-06-14T05:13:02;25.05;;;13.50;;
57067;SDS011;43391;47.448;18.904;2023-06-14T05:15:28;18.85;;;13.40;;
57067;SDS011;43391;47.448;18.904;2023-06-14T05:17:54;21.30;;;13.02;;
57067;SDS011;43391;47.448;18.904;2023-06-14T05:20:21;18.77;;;12.32;;
57067;SDS011;43391;47.448;18.904;2023-06-14T05:22:49;19.60;;;12.10;;
57067;SDS011;43391;47.448;18.904;2023-06-14T05:25:17;19.20;;;12.57;;
57067;SDS011;43391;47.448;18.904;2023-06-14T05:27:42;19.50;;;12.30;;
57067;SDS011;43391;47.448;18.904;2023-06-14T05:30:08;22.65;;;13.23;;
57067;SDS011;43391;47.448;18.904;2023-06-14T05:32:33;25.25;;;12.90;;
57067;SDS011;43391;47.448;18.904;2023-06-14T05:34:59;17.85;;;11.85;;
57067;SDS011;43391;47.448;18.904;2023-06-14T05:37:24;21.00;;;11.93;;
57067;SDS011;43391;47.448;18.904;2023-06-14T05:39:50;17.45;;;10.93;;
57067;SDS011;43391;47.448;18.904;2023-06-14T05:42:15;18.85;;;11.20;;
57067;SDS011;43391;47.448;18.904;2023-06-14T05:44:40;17.10;;;11.13;;
57067;SDS011;43391;47.448;18.904;2023-06-14T05:47:06;14.15;;;9.82;;
57067;SDS011;43391;47.448;18.904;2023-06-14T05:49:31;16.63;;;10.27;;
57067;SDS011;43391;47.448;18.904;2023-06-14T05:51:57;14.20;;;9.15;;
57067;SDS011;43391;47.448;18.904;2023-06-14T05:54:22;15.10;;;9.50;;
57067;SDS011;43391;47.448;18.904;2023-06-14T05:56:47;15.00;;;8.55;;
57067;SDS011;43391;47.448;18.904;2023-06-14T05:59:13;15.60;;;9.68;;
57067;SDS011;43391;47.448;18.904;2023-06-14T06:01:38;20.65;;;9.68;;
57067;SDS011;43391;47.448;18.904;2023-06-14T06:04:05;15.80;;;9.50;;
57067;SDS011;43391;47.448;18.904;2023-06-14T06:06:31;15.95;;;8.75;;
57067;SDS011;43391;47.448;18.904;2023-06-14T06:08:57;15.85;;;9.40;;
57067;SDS011;43391;47.448;18.904;2023-06-14T06:11:23;16.30;;;10.25;;
57067;SDS011;43391;47.448;18.904;2023-06-14T06:13:49;15.57;;;8.77;;
57067;SDS011;43391;47.448;18.904;2023-06-14T06:16:14;12.40;;;9.00;;
57067;SDS011;43391;47.448;18.904;2023-06-14T06:18:40;16.45;;;9.13;;
57067;SDS011;43391;47.448;18.904;2023-06-14T06:21:05;12.68;;;8.65;;
57067;SDS011;43391;47.448;18.904;2023-06-14T06:23:31;15.00;;;9.02;;
57067;SDS011;43391;47.448;18.904;2023-06-14T06:25:57;12.48;;;8.60;;
57067;SDS011;43391;47.448;18.904;2023-06-14T06:28:22;14.40;;;9.63;;
57067;SDS011;43391;47.448;18.904;2023-06-14T06:30:47;13.80;;;9.00;;
57067;SDS011;43391;47.448;18.904;2023-06-14T06:33:13;19.80;;;8.88;;
57067;SDS011;43391;47.448;18.904;2023-06-14T06:35:39;15.70;;;9.27;;
57067;SDS011;43391;47.448;18.904;2023-06-14T06:38:04;21.33;;;9.48;;
57067;SDS011;43391;47.448;18.904;2023-06-14T06:40:30;18.35;;;9.10;;
57067;SDS011;43391;47.448;18.904;2023-06-14T06:42:55;29.65;;;10.05;;
57067;SDS011;43391;47.448;18.904;2023-06-14T06:45:21;19.60;;;9.52;;
57067;SDS011;43391;47.448;18.904;2023-06-14T06:47:48;12.40;;;8.70;;
57067;SDS011;43391;47.448;18.904;2023-06-14T06:50:14;17.63;;;9.00;;
57067;SDS011;43391;47.448;18.904;2023-06-14T06:52:39;14.93;;;8.88;;
57067;SDS011;43391;47.448;18.904;2023-06-14T06:55:05;16.70;;;8.75;;
57067;SDS011;43391;47.448;18.904;2023-06-14T06:57:31;21.20;;;10.13;;
57067;SDS011;43391;47.448;18.904;2023-06-14T06:59:56;23.95;;;9.98;;
57067;SDS011;43391;47.448;18.904;2023-06-14T07:02:22;17.17;;;9.73;;
57067;SDS011;43391;47.448;18.904;2023-06-14T07:04:48;18.52;;;9.68;;
57067;SDS011;43391;47.448;18.904;2023-06-14T07:07:17;17.60;;;9.13;;
57067;SDS011;43391;47.448;18.904;2023-06-14T07:09:42;19.23;;;9.13;;
57067;SDS011;43391;47.448;18.904;2023-06-14T07:12:08;14.77;;;8.80;;
57067;SDS011;43391;47.448;18.904;2023-06-14T07:14:33;13.77;;;8.70;;
57067;SDS011;43391;47.448;18.904;2023-06-14T07:16:58;14.20;;;8.80;;
57067;SDS011;43391;47.448;18.904;2023-06-14T07:19:24;14.52;;;9.73;;
57067;SDS011;43391;47.448;18.904;2023-06-14T07:21:49;15.75;;;9.38;;
57067;SDS011;43391;47.448;18.904;2023-06-14T07:24:15;13.30;;;9.40;;
57067;SDS011;43391;47.448;18.904;2023-06-14T07:26:40;14.80;;;9.90;;
57067;SDS011;43391;47.448;18.904;2023-06-14T07:29:06;15.57;;;9.18;;
57067;SDS011;43391;47.448;18.904;2023-06-14T07:31:31;12.85;;;8.82;;
57067;SDS011;43391;47.448;18.904;2023-06-14T07:33:57;21.60;;;10.00;;
57067;SDS011;43391;47.448;18.904;2023-06-14T07:36:22;20.30;;;10.13;;
57067;SDS011;43391;47.448;18.904;2023-06-14T07:38:48;19.85;;;9.98;;
57067;SDS011;43391;47.448;18.904;2023-06-14T07:41:13;22.33;;;9.65;;
57067;SDS011;43391;47.448;18.904;2023-06-14T07:43:38;16.45;;;10.32;;
57067;SDS011;43391;47.448;18.904;2023-06-14T07:46:04;17.08;;;10.00;;
57067;SDS011;43391;47.448;18.904;2023-06-14T07:48:29;16.40;;;9.75;;
57067;SDS011;43391;47.448;18.904;2023-06-14T07:50:55;17.88;;;9.77;;
57067;SDS011;43391;47.448;18.904;2023-06-14T07:53:20;14.35;;;8.98;;
57067;SDS011;43391;47.448;18.904;2023-06-14T07:55:46;15.40;;;9.48;;
57067;SDS011;43391;47.448;18.904;2023-06-14T07:58:12;15.75;;;10.23;;
57067;SDS011;43391;47.448;18.904;2023-06-14T08:00:38;13.55;;;10.40;;
57067;SDS011;43391;47.448;18.904;2023-06-14T08:03:03;15.70;;;9.38;;
57067;SDS011;43391;47.448;18.904;2023-06-14T08:05:29;16.00;;;9.45;;
57067;SDS011;43391;47.448;18.904;2023-06-14T08:07:54;13.73;;;9.75;;
57067;SDS011;43391;47.448;18.904;2023-06-14T08:10:20;13.23;;;9.77;;
57067;SDS011;43391;47.448;18.904;2023-06-14T08:12:46;14.48;;;9.75;;
57067;SDS011;43391;47.448;18.904;2023-06-14T08:15:13;16.33;;;9.88;;
57067;SDS011;43391;47.448;18.904;2023-06-14T08:17:38;13.27;;;8.93;;
57067;SDS011;43391;47.448;18.904;2023-06-14T08:20:04;13.05;;;9.15;;
57067;SDS011;43391;47.448;18.904;2023-06-14T08:22:31;17.45;;;10.25;;
57067;SDS011;43391;47.448;18.904;2023-06-14T08:25:02;15.57;;;10.27;;
57067;SDS011;43391;47.448;18.904;2023-06-14T08:27:28;18.83;;;10.30;;
57067;SDS011;43391;47.448;18.904;2023-06-14T08:29:54;15.52;;;10.23;;
57067;SDS011;43391;47.448;18.904;2023-06-14T08:32:20;15.45;;;10.90;;
57067;SDS011;43391;47.448;18.904;2023-06-14T08:34:45;14.52;;;8.80;;
57067;SDS011;43391;47.448;18.904;2023-06-14T08:37:10;12.75;;;9.45;;
57067;SDS011;43391;47.448;18.904;2023-06-14T08:39:36;16.98;;;9.48;;
57067;SDS011;43391;47.448;18.904;2023-06-14T08:42:02;18.85;;;8.88;;
57067;SDS011;43391;47.448;18.904;2023-06-14T08:44:29;14.45;;;8.80;;
57067;SDS011;43391;47.448;18.904;2023-06-14T08:46:59;11.30;;;8.68;;
57067;SDS011;43391;47.448;18.904;2023-06-14T08:49:25;12.68;;;7.68;;
57067;SDS011;43391;47.448;18.904;2023-06-14T08:51:57;13.43;;;7.32;;
57067;SDS011;43391;47.448;18.904;2023-06-14T08:54:25;13.93;;;7.50;;
57067;SDS011;43391;47.448;18.904;2023-06-14T08:56:52;11.93;;;7.43;;
57067;SDS011;43391;47.448;18.904;2023-06-14T08:59:22;12.98;;;7.93;;
57067;SDS011;43391;47.448;18.904;2023-06-14T09:01:52;13.45;;;7.50;;
57067;SDS011;43391;47.448;18.904;2023-06-14T09:04:19;14.00;;;6.63;;
57067;SDS011;43391;47.448;18.904;2023-06-14T09:06:46;11.95;;;6.63;;
57067;SDS011;43391;47.448;18.904;2023-06-14T09:09:17;11.73;;;6.45;;
57067;SDS011;43391;47.448;18.904;2023-06-14T09:11:48;11.02;;;6.70;;
57067;SDS011;43391;47.448;18.904;2023-06-14T09:14:14;15.07;;;7.20;;
57067;SDS011;43391;47.448;18.904;2023-06-14T09:16:40;10.38;;;6.35;;
57067;SDS011;43391;47.448;18.904;2023-06-14T09:19:05;10.98;;;7.60;;
57067;SDS011;43391;47.448;18.904;2023-06-14T09:21:33;14.38;;;6.95;;
57067;SDS011;43391;47.448;18.904;2023-06-14T09:24:01;12.60;;;6.85;;
57067;SDS011;43391;47.448;18.904;2023-06-14T09:26:27;9.45;;;6.10;;
57067;SDS011;43391;47.448;18.904;2023-06-14T09:28:52;11.25;;;6.80;;
57067;SDS011;43391;47.448;18.904;2023-06-14T09:31:18;11.98;;;6.78;;
57067;SDS011;43391;47.448;18.904;2023-06-14T09:33:45;11.65;;;6.55;;
57067;SDS011;43391;47.448;18.904;2023-06-14T09:36:16;10.73;;;7.47;;
57067;SDS011;43391;47.448;18.904;2023-06-14T09:38:43;10.07;;;7.13;;
57067;SDS011;43391;47.448;18.904;2023-06-14T09:41:17;13.52;;;6.95;;
57067;SDS011;43391;47.448;18.904;2023-06-14T09:43:50;13.73;;;7.28;;
57067;SDS011;43391;47.448;18.904;2023-06-14T09:46:22;11.18;;;6.85;;
57067;SDS011;43391;47.448;18.904;2023-06-14T09:48:47;11.40;;;6.72;;
57067;SDS011;43391;47.448;18.904;2023-06-14T09:51:13;15.45;;;7.18;;
57067;SDS011;43391;47.448;18.904;2023-06-14T09:53:40;9.75;;;6.88;;
57067;SDS011;43391;47.448;18.904;2023-06-14T09:56:07;11.32;;;6.20;;
57067;SDS011;43391;47.448;18.904;2023-06-14T09:58:35;10.85;;;6.72;;
57067;SDS011;43391;47.448;18.904;2023-06-14T10:01:04;13.13;;;7.03;;
57067;SDS011;43391;47.448;18.904;2023-06-14T10:03:33;11.75;;;7.03;;
57067;SDS011;43391;47.448;18.904;2023-06-14T10:06:02;11.88;;;6.70;;
57067;SDS011;43391;47.448;18.904;2023-06-14T10:08:28;11.93;;;6.82;;
57067;SDS011;43391;47.448;18.904;2023-06-14T10:10:57;9.68;;;6.80;;
57067;SDS011;43391;47.448;18.904;2023-06-14T10:13:22;11.98;;;6.88;;
57067;SDS011;43391;47.448;18.904;2023-06-14T10:15:58;10.38;;;6.10;;
57067;SDS011;43391;47.448;18.904;2023-06-14T10:18:43;10.52;;;6.03;;
57067;SDS011;43391;47.448;18.904;2023-06-14T10:24:12;7.55;;;5.03;;
57067;SDS011;43391;47.448;18.904;2023-06-14T10:26:53;14.93;;;5.13;;
57067;SDS011;43391;47.448;18.904;2023-06-14T10:29:22;7.05;;;4.88;;
57067;SDS011;43391;47.448;18.904;2023-06-14T10:31:48;8.18;;;4.60;;
57067;SDS011;43391;47.448;18.904;2023-06-14T10:34:22;8.27;;;5.18;;
57067;SDS011;43391;47.448;18.904;2023-06-14T10:36:50;8.27;;;5.32;;
57067;SDS011;43391;47.448;18.904;2023-06-14T10:39:26;7.03;;;4.22;;
57067;SDS011;43391;47.448;18.904;2023-06-14T10:41:53;8.48;;;4.30;;
57067;SDS011;43391;47.448;18.904;2023-06-14T10:46:54;6.43;;;4.28;;
57067;SDS011;43391;47.448;18.904;2023-06-14T10:49:36;6.95;;;3.78;;
57067;SDS011;43391;47.448;18.904;2023-06-14T10:52:13;5.78;;;3.67;;
57067;SDS011;43391;47.448;18.904;2023-06-14T10:54:59;5.32;;;3.75;;
57067;SDS011;43391;47.448;18.904;2023-06-14T10:57:29;7.25;;;3.88;;
57067;SDS011;43391;47.448;18.904;2023-06-14T10:59:57;5.43;;;3.83;;
57067;SDS011;43391;47.448;18.904;2023-06-14T11:05:19;8.23;;;3.97;;
57067;SDS011;43391;47.448;18.904;2023-06-14T11:10:39;5.68;;;3.97;;
57067;SDS011;43391;47.448;18.904;2023-06-14T11:13:06;5.32;;;3.88;;
57067;SDS011;43391;47.448;18.904;2023-06-14T11:15:34;7.90;;;3.83;;
57067;SDS011;43391;47.448;18.904;2023-06-14T11:18:01;6.32;;;4.18;;
57067;SDS011;43391;47.448;18.904;2023-06-14T11:20:29;7.45;;;3.55;;
57067;SDS011;43391;47.448;18.904;2023-06-14T11:22:56;4.40;;;3.38;;
57067;SDS011;43391;47.448;18.904;2023-06-14T11:25:21;5.63;;;3.63;;
57067;SDS011;43391;47.448;18.904;2023-06-14T11:27:48;6.72;;;3.50;;
57067;SDS011;43391;47.448;18.904;2023-06-14T11:30:14;7.13;;;4.03;;
57067;SDS011;43391;47.448;18.904;2023-06-14T11:32:40;6.78;;;3.65;;
57067;SDS011;43391;47.448;18.904;2023-06-14T11:35:06;5.50;;;3.67;;
57067;SDS011;43391;47.448;18.904;2023-06-14T11:37:33;5.53;;;3.58;;
57067;SDS011;43391;47.448;18.904;2023-06-14T11:39:59;4.78;;;3.75;;
57067;SDS011;43391;47.448;18.904;2023-06-14T11:42:27;4.32;;;3.40;;
57067;SDS011;43391;47.448;18.904;2023-06-14T11:44:53;7.60;;;4.00;;
57067;SDS011;43391;47.448;18.904;2023-06-14T11:47:20;6.38;;;4.00;;
57067;SDS011;43391;47.448;18.904;2023-06-14T11:49:46;6.45;;;4.03;;
57067;SDS011;43391;47.448;18.904;2023-06-14T11:52:11;7.53;;;4.40;;
57067;SDS011;43391;47.448;18.904;2023-06-14T11:54:37;6.57;;;4.00;;
57067;SDS011;43391;47.448;18.904;2023-06-14T11:57:05;7.20;;;4.05;;
57067;SDS011;43391;47.448;18.904;2023-06-14T11:59:32;5.47;;;4.40;;
57067;SDS011;43391;47.448;18.904;2023-06-14T12:02:02;7.28;;;4.05;;
57067;SDS011;43391;47.448;18.904;2023-06-14T12:04:28;6.78;;;4.45;;
57067;SDS011;43391;47.448;18.904;2023-06-14T12:06:54;7.90;;;4.50;;
57067;SDS011;43391;47.448;18.904;2023-06-14T12:09:22;6.32;;;4.20;;
57067;SDS011;43391;47.448;18.904;2023-06-14T12:11:49;6.97;;;4.35;;
57067;SDS011;43391;47.448;18.904;2023-06-14T12:14:14;5.50;;;3.78;;
57067;SDS011;43391;47.448;18.904;2023-06-14T12:16:40;6.75;;;4.60;;
57067;SDS011;43391;47.448;18.904;2023-06-14T12:21:38;4.82;;;4.00;;
57067;SDS011;43391;47.448;18.904;2023-06-14T12:24:05;6.72;;;4.38;;
57067;SDS011;43391;47.448;18.904;2023-06-14T12:26:32;6.35;;;4.50;;
57067;SDS011;43391;47.448;18.904;2023-06-14T12:28:58;9.25;;;5.25;;
57067;SDS011;43391;47.448;18.904;2023-06-14T12:31:24;7.55;;;4.82;;
57067;SDS011;43391;47.448;18.904;2023-06-14T12:33:51;5.78;;;4.63;;
57067;SDS011;43391;47.448;18.904;2023-06-14T12:36:20;6.18;;;4.40;;
57067;SDS011;43391;47.448;18.904;2023-06-14T12:38:45;7.05;;;4.65;;
57067;SDS011;43391;47.448;18.904;2023-06-14T12:41:11;6.15;;;4.72;;
57067;SDS011;43391;47.448;18.904;2023-06-14T12:43:38;7.13;;;4.93;;
57067;SDS011;43391;47.448;18.904;2023-06-14T12:46:04;8.20;;;4.82;;
57067;SDS011;43391;47.448;18.904;2023-06-14T12:48:29;6.63;;;4.53;;
57067;SDS011;43391;47.448;18.904;2023-06-14T12:50:56;8.32;;;5.30;;
57067;SDS011;43391;47.448;18.904;2023-06-14T12:53:23;6.90;;;5.03;;
57067;SDS011;43391;47.448;18.904;2023-06-14T12:55:49;9.10;;;5.18;;
57067;SDS011;43391;47.448;18.904;2023-06-14T12:58:14;8.07;;;5.22;;
57067;SDS011;43391;47.448;18.904;2023-06-14T13:00:42;7.00;;;4.53;;
57067;SDS011;43391;47.448;18.904;2023-06-14T13:03:07;8.23;;;5.40;;
57067;SDS011;43391;47.448;18.904;2023-06-14T13:05:33;6.90;;;4.75;;
57067;SDS011;43391;47.448;18.904;2023-06-14T13:07:58;8.65;;;4.72;;
57067;SDS011;43391;47.448;18.904;2023-06-14T13:10:24;7.93;;;4.90;;
57067;SDS011;43391;47.448;18.904;2023-06-14T13:12:52;9.07;;;5.07;;
57067;SDS011;43391;47.448;18.904;2023-06-14T13:15:17;8.35;;;4.78;;
57067;SDS011;43391;47.448;18.904;2023-06-14T13:17:42;10.98;;;5.35;;
57067;SDS011;43391;47.448;18.904;2023-06-14T13:20:13;6.15;;;4.90;;
57067;SDS011;43391;47.448;18.904;2023-06-14T13:22:39;6.47;;;5.03;;
57067;SDS011;43391;47.448;18.904;2023-06-14T13:25:04;7.53;;;4.97;;
57067;SDS011;43391;47.448;18.904;2023-06-14T13:27:31;10.85;;;4.80;;
57067;SDS011;43391;47.448;18.904;2023-06-14T13:29:56;7.85;;;4.90;;
57067;SDS011;43391;47.448;18.904;2023-06-14T13:32:22;8.48;;;5.00;;
57067;SDS011;43391;47.448;18.904;2023-06-14T13:34:48;12.43;;;5.28;;
57067;SDS011;43391;47.448;18.904;2023-06-14T13:37:13;8.10;;;5.57;;
57067;SDS011;43391;47.448;18.904;2023-06-14T13:39:39;7.25;;;5.10;;
57067;SDS011;43391;47.448;18.904;2023-06-14T13:42:04;9.75;;;4.97;;
57067;SDS011;43391;47.448;18.904;2023-06-14T13:44:30;11.65;;;5.03;;
57067;SDS011;43391;47.448;18.904;2023-06-14T13:46:56;10.02;;;5.07;;
57067;SDS011;43391;47.448;18.904;2023-06-14T13:49:21;6.35;;;4.20;;
57067;SDS011;43391;47.448;18.904;2023-06-14T13:51:47;9.13;;;5.10;;
57067;SDS011;43391;47.448;18.904;2023-06-14T13:54:13;8.25;;;4.57;;
57067;SDS011;43391;47.448;18.904;2023-06-14T13:56:39;12.65;;;4.93;;
57067;SDS011;43391;47.448;18.904;2023-06-14T13:59:05;8.35;;;4.88;;
57067;SDS011;43391;47.448;18.904;2023-06-14T14:01:31;5.45;;;4.20;;
57067;SDS011;43391;47.448;18.904;2023-06-14T14:03:56;9.82;;;4.78;;
57067;SDS011;43391;47.448;18.904;2023-06-14T14:06:23;7.97;;;4.35;;
57067;SDS011;43391;47.448;18.904;2023-06-14T14:08:48;8.40;;;4.43;;
57067;SDS011;43391;47.448;18.904;2023-06-14T14:11:14;6.00;;;4.15;;
57067;SDS011;43391;47.448;18.904;2023-06-14T14:13:41;7.38;;;4.35;;
57067;SDS011;43391;47.448;18.904;2023-06-14T14:16:07;8.93;;;4.63;;
57067;SDS011;43391;47.448;18.904;2023-06-14T14:18:33;7.20;;;4.75;;
57067;SDS011;43391;47.448;18.904;2023-06-14T14:20:58;9.15;;;4.07;;
57067;SDS011;43391;47.448;18.904;2023-06-14T14:23:25;6.63;;;4.28;;
57067;SDS011;43391;47.448;18.904;2023-06-14T14:25:51;6.53;;;3.80;;
57067;SDS011;43391;47.448;18.904;2023-06-14T14:28:16;7.93;;;4.00;;
57067;SDS011;43391;47.448;18.904;2023-06-14T14:30:44;5.57;;;3.70;;
57067;SDS011;43391;47.448;18.904;2023-06-14T14:33:11;5.75;;;4.03;;
57067;SDS011;43391;47.448;18.904;2023-06-14T14:35:40;6.10;;;4.30;;
57067;SDS011;43391;47.448;18.904;2023-06-14T14:38:11;11.45;;;3.90;;
57067;SDS011;43391;47.448;18.904;2023-06-14T14:40:36;8.45;;;4.00;;
57067;SDS011;43391;47.448;18.904;2023-06-14T14:43:02;8.10;;;4.40;;
57067;SDS011;43391;47.448;18.904;2023-06-14T14:45:27;7.50;;;4.38;;